Time;durP1;ratioP1;P1;durP2;ratioP2;P2;SDS_P1;SDS_P2;PMS_P1;PMS_P2;Temp;Humidity;BMP_temperature;BMP_pressure;BME280_temperature;BME280_humidity;BME280_pressure;Samples;Min_cycle;Max_cycle;Signal;HPM_P1;HPM_P2
2023/01/10 00:00:42;;;;;;;4.95;2.63;;;;;;;9.08;51.82;94341.75;4991387;28;20195;-59
2023/01/10 00:03:10;;;;;;;0.00;0.00;;;;;;;9.25;50.88;94351.16;4992074;28;20287;-61
2023/01/10 00:05:38;;;;;;;3.03;1.75;;;;;;;9.19;50.81;94371.28;4991309;28;20228;-59
2023/01/10 00:08:06;;;;;;;0.45;0.45;;;;;;;9.14;51.00;94351.13;4991838;28;20193;-60
2023/01/10 00:10:34;;;;;;;0.45;0.17;;;;;;;9.14;50.34;94372.03;4991375;28;20198;-56
2023/01/10 00:15:47;;;;;;;0.10;0.10;;;;;;;8.86;51.59;94348.22;4978552;28;20564;-60
2023/01/10 00:18:14;;;;;;;2.65;1.65;;;;;;;9.02;51.01;94357.66;4991819;28;20674;-61
2023/01/10 00:20:43;;;;;;;0.47;0.47;;;;;;;8.90;51.86;94349.28;4991226;28;20233;-61
2023/01/10 00:23:10;;;;;;;0.20;0.20;;;;;;;9.04;51.23;94350.34;4991785;28;20670;-59
2023/01/10 00:25:37;;;;;;;13.85;1.85;;;;;;;9.39;50.33;94370.50;4990860;28;20236;-59
2023/01/10 00:28:18;;;;;;;0.20;0.20;;;;;;;9.44;50.13;94354.81;4991500;28;20253;-59
2023/01/10 00:31:05;;;;;;;0.10;0.10;;;;;;;9.30;50.56;94364.22;4990771;28;20237;-58
2023/01/10 00:33:34;;;;;;;0.10;0.10;;;;;;;9.08;51.16;94351.41;4979322;28;20208;-58
2023/01/10 00:36:06;;;;;;;0.50;0.47;;;;;;;8.75;52.18;94373.53;4989571;28;20203;-60
2023/01/10 00:38:34;;;;;;;0.52;0.38;;;;;;;8.96;51.58;94307.22;4991213;28;20198;-59
2023/01/10 00:41:02;;;;;;;0.00;0.00;;;;;;;8.31;52.94;94351.41;4990650;28;20249;-59
2023/01/10 00:46:14;;;;;;;0.00;0.00;;;;;;;9.43;50.51;94329.75;4991066;28;20304;-60
2023/01/10 00:48:41;;;;;;;0.65;0.63;;;;;;;9.29;50.61;94300.69;4991579;28;20210;-59
2023/01/10 00:51:08;;;;;;;0.40;0.40;;;;;;;9.32;50.89;94307.25;4990437;28;20265;-59
2023/01/10 00:53:35;;;;;;;7.95;1.85;;;;;;;8.76;51.58;94306.38;4990851;28;20198;-59
2023/01/10 00:56:02;;;;;;;0.10;0.10;;;;;;;8.28;53.75;94336.25;4990736;28;20190;-59
2023/01/10 00:58:28;;;;;;;0.70;0.70;;;;;;;8.77;52.77;94329.66;4991480;28;20206;-59
2023/01/10 01:00:55;;;;;;;0.77;0.77;;;;;;;9.01;51.99;94341.19;4990546;28;20281;-59
2023/01/10 01:03:22;;;;;;;0.47;0.47;;;;;;;9.37;51.28;94325.53;4990998;28;20198;-59
2023/01/10 01:05:49;;;;;;;0.55;0.55;;;;;;;9.58;50.68;94308.81;4990315;28;20261;-60
2023/01/10 01:08:17;;;;;;;1.33;0.85;;;;;;;9.35;50.96;94328.41;4991135;28;20206;-59
2023/01/10 01:10:45;;;;;;;0.20;0.20;;;;;;;9.51;50.22;94296.00;4990329;28;20572;-59
2023/01/10 01:13:20;;;;;;;1.25;1.25;;;;;;;9.35;50.97;94304.09;4991188;28;20289;-60
2023/01/10 01:15:48;;;;;;;0.10;0.10;;;;;;;8.89;52.32;94306.69;4977808;28;20186;-59
2023/01/10 01:18:17;;;;;;;0.52;0.35;;;;;;;8.82;52.46;94300.91;4990317;28;20199;-60
2023/01/10 01:20:46;;;;;;;0.40;0.40;;;;;;;8.89;51.73;94295.44;4990193;28;20586;-59
2023/01/10 01:23:14;;;;;;;0.55;0.55;;;;;;;9.23;51.13;94282.69;4990268;28;20210;-60
2023/01/10 01:25:41;;;;;;;0.47;0.47;;;;;;;9.34;50.83;94279.03;4989773;28;20211;-59
2023/01/10 01:28:11;;;;;;;0.63;0.63;;;;;;;9.20;50.76;94297.03;4990248;28;20902;-59
2023/01/10 01:30:37;;;;;;;0.43;0.43;;;;;;;8.92;51.75;94316.59;4989965;28;20311;-59
2023/01/10 01:33:04;;;;;;;0.32;0.32;;;;;;;9.13;51.50;94275.59;4990128;28;20200;-59
2023/01/10 01:35:32;;;;;;;0.20;0.20;;;;;;;8.58;52.38;94356.47;4989776;28;20284;-58
2023/01/10 01:37:59;;;;;;;0.63;0.63;;;;;;;9.03;52.08;94317.44;4990200;28;20229;-58
2023/01/10 01:40:26;;;;;;;3.38;1.05;;;;;;;8.70;53.03;94334.34;4989743;28;20202;-59
2023/01/10 01:42:54;;;;;;;2.20;0.45;;;;;;;8.93;52.40;94281.59;4989744;28;20286;-59
2023/01/10 01:45:21;;;;;;;0.00;0.00;;;;;;;9.29;51.79;94297.31;4989725;28;20225;-59
2023/01/10 01:47:51;;;;;;;0.43;0.43;;;;;;;9.73;50.40;94311.41;4990046;28;20245;-59
2023/01/10 01:50:28;;;;;;;0.17;0.17;;;;;;;9.33;51.03;94290.50;4989733;28;20202;-58
2023/01/10 01:52:58;;;;;;;0.20;0.20;;;;;;;9.28;50.94;94303.56;4989714;28;20739;-60
2023/01/10 01:55:27;;;;;;;0.90;0.90;;;;;;;9.28;51.15;94287.91;4989356;28;20281;-60
2023/01/10 01:57:57;;;;;;;0.43;0.43;;;;;;;9.61;50.34;94292.59;4977529;28;20280;-57
2023/01/10 02:00:24;;;;;;;0.13;0.13;;;;;;;9.85;49.77;94277.91;4989644;28;20264;-58
2023/01/10 02:02:55;;;;;;;1.77;0.43;;;;;;;9.82;50.11;94268.75;4990087;28;20238;-59
2023/01/10 02:05:33;;;;;;;0.32;0.32;;;;;;;10.02;49.61;94273.13;4988460;28;20225;-60
2023/01/10 02:08:01;;;;;;;1.00;0.75;;;;;;;9.72;49.70;94273.22;4989570;28;20198;-59
2023/01/10 02:10:51;;;;;;;0.40;0.40;;;;;;;9.94;49.59;94271.06;4989138;28;20202;-60
2023/01/10 02:13:21;;;;;;;0.00;0.00;;;;;;;9.78;50.30;94240.78;4989836;28;20222;-59
2023/01/10 02:15:48;;;;;;;0.35;0.35;;;;;;;9.85;50.25;94249.13;4976509;28;20194;-58
2023/01/10 02:18:16;;;;;;;1.85;1.25;;;;;;;10.08;49.59;94238.03;4989163;28;20208;-58
2023/01/10 02:20:46;;;;;;;1.55;1.23;;;;;;;9.61;50.26;94245.50;4989493;28;20279;-59
2023/01/10 02:23:33;;;;;;;1.88;0.70;;;;;;;9.61;50.47;94240.28;4989545;28;20226;-59
2023/01/10 02:26:17;;;;;;;0.00;0.00;;;;;;;9.69;50.11;94258.06;4989106;28;20210;-58
2023/01/10 02:28:56;;;;;;;1.00;0.57;;;;;;;9.52;50.91;94231.41;4977657;28;20725;-60
2023/01/10 02:32:00;;;;;;;0.52;0.52;;;;;;;9.86;50.44;94232.38;4989119;28;20735;-59
2023/01/10 02:34:51;;;;;;;0.10;0.10;;;;;;;9.82;49.89;94231.31;4988776;28;20198;-58
2023/01/10 02:37:42;;;;;;;0.98;0.82;;;;;;;9.82;50.02;94221.66;4989462;28;20273;-57
2023/01/10 02:40:26;;;;;;;0.00;0.00;;;;;;;10.01;49.28;94234.94;4976271;28;20253;-59
2023/01/10 02:43:08;;;;;;;3.60;0.80;;;;;;;9.66;50.37;94227.19;4989664;28;20238;-59
2023/01/10 02:45:42;;;;;;;0.35;0.35;;;;;;;9.73;49.91;94238.94;4989152;28;20309;-59
2023/01/10 02:48:09;;;;;;;0.45;0.45;;;;;;;9.73;49.77;94217.22;4990016;28;20202;-58
2023/01/10 02:50:41;;;;;;;0.47;0.47;;;;;;;9.90;49.67;94238.63;4988824;28;20199;-59
2023/01/10 02:53:38;;;;;;;0.68;0.68;;;;;;;9.97;49.32;94237.31;4989525;28;20261;-59
2023/01/10 02:56:26;;;;;;;0.30;0.30;;;;;;;9.90;49.09;94234.19;4988633;28;20191;-58
2023/01/10 02:59:16;;;;;;;0.15;0.15;;;;;;;9.70;50.07;94239.47;4989260;28;20705;-59
2023/01/10 03:01:46;;;;;;;2.60;1.00;;;;;;;9.77;49.88;94229.53;4988737;28;20206;-59
2023/01/10 03:04:31;;;;;;;0.80;0.65;;;;;;;9.61;50.02;94232.44;4988880;28;20199;-59
2023/01/10 03:07:22;;;;;;;0.30;0.30;;;;;;;9.78;49.57;94232.94;4974853;28;20326;-60
2023/01/10 03:09:52;;;;;;;0.30;0.30;;;;;;;9.62;49.97;94236.59;4988656;28;20233;-60
2023/01/10 03:12:26;;;;;;;0.05;0.05;;;;;;;9.90;49.30;94243.88;4989318;28;20655;-60
2023/01/10 03:14:55;;;;;;;0.00;0.00;;;;;;;9.51;49.91;94245.50;4988676;28;20222;-58
2023/01/10 03:17:24;;;;;;;1.77;1.63;;;;;;;8.97;52.17;94245.28;4993029;28;20253;-59
2023/01/10 03:19:56;;;;;;;0.40;0.40;;;;;;;9.36;50.83;94258.63;4992230;28;20225;-59
2023/01/10 03:22:25;;;;;;;1.70;1.60;;;;;;;9.07;51.46;94243.47;4992806;28;20198;-59
2023/01/10 03:24:54;;;;;;;0.65;0.65;;;;;;;9.36;51.23;94242.94;4992087;28;20265;-60
2023/01/10 03:27:37;;;;;;;2.33;1.40;;;;;;;9.79;49.77;94247.56;4993146;28;20589;-59
2023/01/10 03:30:07;;;;;;;0.10;0.10;;;;;;;9.57;50.27;94265.38;4992483;28;20229;-58
2023/01/10 03:32:34;;;;;;;0.10;0.10;;;;;;;9.44;50.26;94250.22;4992907;28;20198;-60
2023/01/10 03:35:03;;;;;;;0.17;0.17;;;;;;;9.74;49.79;94250.19;4991935;28;20569;-59
2023/01/10 03:37:35;;;;;;;0.28;0.28;;;;;;;10.06;48.92;94253.22;4992417;28;20199;-60
2023/01/10 03:40:37;;;;;;;0.17;0.17;;;;;;;9.56;50.30;94248.16;4991983;28;20249;-58
2023/01/10 03:46:45;;;;;;;0.00;0.00;;;;;;;10.01;49.15;94259.28;4991468;28;20222;-58
2023/01/10 03:49:15;;;;;;;2.05;1.70;;;;;;;10.14;48.74;94265.81;4993385;28;20199;-59
2023/01/10 03:51:43;;;;;;;0.65;0.65;;;;;;;10.02;49.08;94257.44;4992235;28;20191;-58
2023/01/10 03:54:11;;;;;;;0.47;0.45;;;;;;;9.85;49.66;94243.91;4991940;28;20309;-59
2023/01/10 03:56:51;;;;;;;0.60;0.60;;;;;;;9.45;50.43;94246.59;4991596;28;20285;-59
2023/01/10 03:59:21;;;;;;;4.68;2.08;;;;;;;10.07;49.31;94232.03;4992177;28;20209;-59
2023/01/10 04:01:48;;;;;;;0.28;0.28;;;;;;;10.09;48.84;94216.09;4992389;28;20272;-58
2023/01/10 04:04:14;;;;;;;1.17;0.93;;;;;;;9.77;49.22;94213.03;4991480;28;20791;-59
2023/01/10 04:06:41;;;;;;;1.95;1.52;;;;;;;9.87;49.19;94192.09;4991964;28;20275;-58
2023/01/10 04:09:09;;;;;;;0.57;0.47;;;;;;;9.62;49.52;94173.84;4992264;28;20232;-59
2023/01/10 04:11:36;;;;;;;0.30;0.30;;;;;;;9.71;49.65;94167.00;4991452;28;20288;-60
2023/01/10 04:14:04;;;;;;;0.28;0.28;;;;;;;9.83;49.51;94144.75;4991831;28;20206;-59
2023/01/10 04:16:30;;;;;;;0.47;0.15;;;;;;;9.02;51.05;94165.06;4991736;28;20265;-58
2023/01/10 04:18:57;;;;;;;0.10;0.10;;;;;;;9.47;50.14;94171.28;4991925;28;20294;-58
2023/01/10 04:21:24;;;;;;;0.32;0.32;;;;;;;9.16;50.71;94170.53;4990847;28;20245;-59
2023/01/10 04:23:51;;;;;;;1.00;0.75;;;;;;;9.20;51.44;94167.16;4992104;28;20217;-59
2023/01/10 04:26:17;;;;;;;0.25;0.25;;;;;;;9.37;50.56;94177.31;4991207;28;20253;-58
2023/01/10 04:28:44;;;;;;;0.10;0.10;;;;;;;9.16;50.79;94210.53;4990328;28;20298;-61
2023/01/10 04:31:11;;;;;;;0.30;0.30;;;;;;;9.23;50.47;94230.41;4990906;28;20269;-59
2023/01/10 04:33:40;;;;;;;0.65;0.50;;;;;;;9.11;50.95;94247.13;4991532;28;20222;-59
2023/01/10 04:36:07;;;;;;;0.10;0.10;;;;;;;9.45;50.26;94251.81;4990891;28;20561;-60
2023/01/10 04:38:33;;;;;;;0.00;0.00;;;;;;;9.67;49.96;94244.47;4991905;28;20223;-59
2023/01/10 04:41:00;;;;;;;0.00;0.00;;;;;;;9.93;49.38;94264.25;4990596;28;20210;-59
2023/01/10 04:43:27;;;;;;;0.45;0.45;;;;;;;9.88;49.09;94236.28;4991377;28;20297;-59
2023/01/10 04:45:54;;;;;;;1.88;1.42;;;;;;;9.97;49.28;94265.31;4990381;28;20265;-60
2023/01/10 04:48:21;;;;;;;0.30;0.30;;;;;;;9.76;49.44;94253.34;4991854;28;20210;-60
2023/01/10 04:50:49;;;;;;;0.00;0.00;;;;;;;9.89;49.70;94226.63;4990178;28;20305;-62
2023/01/10 04:53:17;;;;;;;1.42;1.33;;;;;;;9.83;49.72;94238.94;4990986;28;20199;-60
2023/01/10 04:55:44;;;;;;;1.20;1.15;;;;;;;10.06;49.19;94227.84;4990578;28;20276;-59
2023/01/10 04:58:12;;;;;;;2.83;1.08;;;;;;;9.90;49.25;94228.16;4991056;28;20677;-60
2023/01/10 05:00:39;;;;;;;1.25;1.15;;;;;;;9.67;49.75;94239.22;4988818;28;20597;-59
2023/01/10 05:03:05;;;;;;;0.20;0.20;;;;;;;9.17;51.06;94238.25;4990507;28;20194;-58
2023/01/10 05:05:32;;;;;;;0.00;0.00;;;;;;;9.52;50.31;94213.09;4990336;28;20199;-59
2023/01/10 05:07:59;;;;;;;0.08;0.08;;;;;;;9.90;49.73;94207.25;4990947;28;20245;-59
2023/01/10 05:10:26;;;;;;;0.30;0.22;;;;;;;10.17;50.96;94218.16;4988718;28;20230;-59
2023/01/10 05:12:53;;;;;;;0.08;0.08;;;;;;;9.45;50.35;94199.53;4987773;28;20198;-60
2023/01/10 05:15:21;;;;;;;0.50;0.50;;;;;;;9.90;49.86;94196.78;4990108;28;20226;-60
2023/01/10 05:17:50;;;;;;;0.85;0.85;;;;;;;9.93;49.62;94196.22;4990720;28;20318;-60
2023/01/10 05:20:17;;;;;;;0.68;0.68;;;;;;;9.92;49.57;94200.69;4987466;28;20210;-59
2023/01/10 05:22:44;;;;;;;2.05;0.40;;;;;;;9.56;50.35;94190.59;4990511;28;20222;-61
2023/01/10 05:25:11;;;;;;;0.47;0.47;;;;;;;9.71;50.47;94187.94;4989891;28;20237;-59
2023/01/10 05:27:41;;;;;;;2.63;1.88;;;;;;;9.81;49.94;94172.22;4990275;28;20313;-59
2023/01/10 05:30:12;;;;;;;0.20;0.20;;;;;;;9.75;50.29;94188.97;4989909;28;20237;-60
2023/01/10 05:32:38;;;;;;;0.60;0.60;;;;;;;9.62;50.45;94197.38;4990462;28;20198;-60
2023/01/10 05:35:05;;;;;;;1.45;0.95;;;;;;;9.72;49.86;94202.59;4989756;28;20300;-60
2023/01/10 05:37:32;;;;;;;0.32;0.32;;;;;;;10.28;48.95;94198.72;4990314;28;20320;-60
2023/01/10 05:39:59;;;;;;;1.50;1.40;;;;;;;10.31;48.66;94192.94;4989831;28;20209;-59
2023/01/10 05:42:26;;;;;;;0.85;0.85;;;;;;;10.19;50.15;94205.56;4989268;28;20202;-61
2023/01/10 05:44:53;;;;;;;0.50;0.50;;;;;;;10.68;51.65;94208.97;4989885;28;20202;-58
2023/01/10 05:47:20;;;;;;;0.88;0.63;;;;;;;10.66;50.14;94207.66;4989839;28;20713;-60
2023/01/10 05:49:46;;;;;;;1.05;1.00;;;;;;;10.84;50.48;94202.56;4989552;28;20648;-61
2023/01/10 05:52:13;;;;;;;0.43;0.43;;;;;;;10.68;49.24;94208.97;4989699;28;20670;-61
2023/01/10 05:54:41;;;;;;;1.00;0.98;;;;;;;10.96;48.94;94212.72;4989252;28;20213;-60
2023/01/10 05:57:08;;;;;;;20.13;3.08;;;;;;;10.70;48.55;94213.94;4989248;28;20290;-60
2023/01/10 05:59:35;;;;;;;3.73;1.70;;;;;;;10.72;48.82;94202.13;4988847;28;20199;-60
2023/01/10 06:02:01;;;;;;;1.17;1.17;;;;;;;10.70;48.30;94196.38;4988592;28;20884;-61
2023/01/10 06:04:28;;;;;;;1.45;0.93;;;;;;;10.53;48.49;94201.19;4987010;28;20198;-56
2023/01/10 06:06:55;;;;;;;1.93;1.43;;;;;;;10.07;49.30;94220.78;4987800;28;20230;-61
2023/01/10 06:09:22;;;;;;;6.05;1.90;;;;;;;10.50;48.92;94200.94;4987724;28;20437;-59
2023/01/10 06:11:49;;;;;;;1.42;1.05;;;;;;;10.61;48.96;94212.94;4987815;28;20269;-61
2023/01/10 06:14:18;;;;;;;2.42;0.85;;;;;;;10.85;48.19;94222.47;4987733;28;20268;-59
2023/01/10 06:16:45;;;;;;;0.63;0.63;;;;;;;11.05;47.37;94218.94;4989144;28;20286;-61
2023/01/10 06:19:13;;;;;;;0.57;0.40;;;;;;;10.93;47.24;94221.88;4989889;28;20556;-59
2023/01/10 06:21:40;;;;;;;0.17;0.17;;;;;;;10.98;46.78;94208.75;4989167;28;20209;-58
2023/01/10 06:24:07;;;;;;;0.60;0.53;;;;;;;11.16;46.73;94215.16;4989654;28;20456;-59
2023/01/10 06:26:34;;;;;;;0.40;0.40;;;;;;;11.20;46.95;94214.34;4989037;28;20990;-59
2023/01/10 06:29:01;;;;;;;0.40;0.35;;;;;;;10.98;47.67;94203.50;4989949;28;20516;-58
2023/01/10 06:31:27;;;;;;;0.60;0.60;;;;;;;11.10;47.07;94206.56;4987476;28;20304;-60
2023/01/10 06:33:54;;;;;;;1.02;0.88;;;;;;;11.14;47.08;94204.97;4987496;28;20625;-60
2023/01/10 06:36:21;;;;;;;2.80;1.27;;;;;;;11.14;46.95;94197.09;4987126;28;20525;-59
2023/01/10 06:38:48;;;;;;;0.28;0.28;;;;;;;10.87;47.47;94196.00;4987643;28;20276;-58
2023/01/10 06:41:15;;;;;;;3.53;2.67;;;;;;;10.41;48.01;94185.03;4986875;28;20247;-58
2023/01/10 06:43:45;;;;;;;1.77;1.63;;;;;;;10.54;48.63;94202.78;4987764;28;20905;-59
2023/01/10 06:46:15;;;;;;;1.47;1.37;;;;;;;10.88;47.89;94193.09;4987439;28;21010;-58
2023/01/10 06:48:44;;;;;;;2.28;1.08;;;;;;;11.05;47.77;94197.94;4988827;28;20456;-59
2023/01/10 06:51:15;;;;;;;2.50;2.13;;;;;;;11.12;47.65;94198.41;4988252;28;20210;-61
2023/01/10 06:53:45;;;;;;;1.85;1.25;;;;;;;11.15;47.67;94198.66;4989459;28;20457;-60
2023/01/10 06:56:12;;;;;;;0.43;0.43;;;;;;;11.07;48.39;94201.88;4988958;28;20579;-60
2023/01/10 06:58:39;;;;;;;2.92;2.28;;;;;;;11.23;47.76;94199.91;4989435;28;20597;-60
2023/01/10 07:01:12;;;;;;;1.50;1.40;;;;;;;11.37;47.91;94194.81;4988742;28;20186;-59
2023/01/10 07:03:39;;;;;;;0.40;0.40;;;;;;;11.25;48.33;94192.53;4989263;28;20444;-59
2023/01/10 07:06:10;;;;;;;4.45;1.40;;;;;;;11.24;49.00;94194.38;4988533;28;20442;-60
2023/01/10 07:08:39;;;;;;;0.68;0.68;;;;;;;11.39;48.88;94190.03;4989299;28;20339;-60
2023/01/10 07:11:07;;;;;;;0.15;0.15;;;;;;;11.43;48.66;94183.97;4988872;28;20195;-61
2023/01/10 07:13:34;;;;;;;0.50;0.50;;;;;;;11.29;49.51;94187.53;4989272;28;20230;-59
2023/01/10 07:16:13;;;;;;;5.10;1.25;;;;;;;11.33;49.77;94180.66;4988310;28;20285;-60
2023/01/10 07:18:41;;;;;;;0.68;0.68;;;;;;;11.31;49.86;94180.16;4988709;28;20216;-59
2023/01/10 07:21:09;;;;;;;0.75;0.50;;;;;;;11.31;49.60;94180.97;4988827;28;20222;-59
2023/01/10 07:23:36;;;;;;;5.38;1.00;;;;;;;11.24;50.44;94167.34;4988942;28;20705;-59
2023/01/10 07:26:05;;;;;;;3.40;1.30;;;;;;;11.50;49.75;94173.94;4988821;28;20668;-60
2023/01/10 07:28:35;;;;;;;3.17;1.42;;;;;;;10.72;51.35;94177.75;4988875;28;20489;-59
2023/01/10 07:31:04;;;;;;;3.30;0.38;;;;;;;10.80;51.45;94179.81;4988139;28;20241;-60
2023/01/10 07:33:31;;;;;;;0.32;0.32;;;;;;;10.57;52.16;94170.78;4989222;28;20190;-58
2023/01/10 07:36:00;;;;;;;2.40;2.20;;;;;;;11.02;51.48;94167.81;4988130;28;20675;-59
2023/01/10 07:38:27;;;;;;;0.50;0.50;;;;;;;11.42;50.26;94165.91;4989017;28;20517;-60
2023/01/10 07:40:54;;;;;;;0.17;0.17;;;;;;;11.59;50.08;94155.72;4988241;28;20708;-60
2023/01/10 07:43:20;;;;;;;0.80;0.73;;;;;;;11.53;50.61;94164.75;4989216;28;20245;-60
2023/01/10 07:45:47;;;;;;;0.50;0.50;;;;;;;11.43;50.72;94170.06;4988245;28;20486;-59
2023/01/10 07:48:14;;;;;;;0.00;0.00;;;;;;;11.45;51.30;94157.47;4988489;28;20215;-60
2023/01/10 07:50:41;;;;;;;0.47;0.47;;;;;;;11.61;50.78;94153.63;4988375;28;20210;-60
2023/01/10 07:53:08;;;;;;;0.25;0.25;;;;;;;11.54;51.41;94161.03;4988906;28;20300;-60
2023/01/10 07:55:38;;;;;;;0.30;0.30;;;;;;;11.12;52.41;94162.50;4988313;28;20280;-60
2023/01/10 07:58:06;;;;;;;0.95;0.95;;;;;;;11.48;51.20;94159.53;4988542;28;20338;-60
2023/01/10 08:00:34;;;;;;;0.20;0.20;;;;;;;11.16;52.10;94158.28;4987752;28;20230;-60
2023/01/10 08:03:01;;;;;;;4.00;2.05;;;;;;;11.55;51.20;94157.38;4990593;28;20214;-59
2023/01/10 08:05:28;;;;;;;0.85;0.68;;;;;;;11.68;50.82;94154.88;4992029;28;20301;-60
2023/01/10 08:07:58;;;;;;;0.15;0.15;;;;;;;11.65;51.22;94167.78;4992044;28;20215;-60
2023/01/10 08:10:26;;;;;;;0.40;0.40;;;;;;;11.90;50.63;94156.97;4991962;28;20257;-60
2023/01/10 08:12:52;;;;;;;8.02;1.02;;;;;;;11.93;50.75;94156.44;4991914;28;20221;-58
2023/01/10 08:15:19;;;;;;;0.43;0.43;;;;;;;11.71;50.92;94156.16;4991230;28;20199;-59
2023/01/10 08:17:47;;;;;;;1.20;1.05;;;;;;;11.62;51.55;94149.94;4992501;28;20230;-60
2023/01/10 08:20:13;;;;;;;0.32;0.32;;;;;;;11.48;51.42;94156.94;4991311;28;20673;-60
2023/01/10 08:22:40;;;;;;;1.17;1.08;;;;;;;11.40;51.99;94152.28;4991793;28;20286;-59
2023/01/10 08:25:08;;;;;;;0.40;0.40;;;;;;;11.43;51.80;94147.25;4991437;28;20194;-60
2023/01/10 08:27:35;;;;;;;28.00;2.15;;;;;;;11.62;51.36;94155.19;4991430;28;20548;-60
2023/01/10 08:30:05;;;;;;;4.38;1.88;;;;;;;11.19;52.77;94131.50;4991227;28;20293;-60
2023/01/10 08:32:32;;;;;;;0.17;0.17;;;;;;;11.11;52.75;94128.69;4991825;28;20207;-59
2023/01/10 08:34:58;;;;;;;1.10;0.75;;;;;;;10.97;53.26;94133.78;4990803;28;20215;-60
2023/01/10 08:37:25;;;;;;;3.10;1.77;;;;;;;10.55;54.03;94145.91;4991614;28;20221;-60
2023/01/10 08:39:52;;;;;;;1.40;0.87;;;;;;;10.58;54.54;94133.06;4991195;28;20203;-61
2023/01/10 08:42:19;;;;;;;0.30;0.30;;;;;;;10.99;53.56;94110.72;4991789;28;20454;-60
2023/01/10 08:44:46;;;;;;;3.13;0.88;;;;;;;11.43;52.47;94117.59;4989412;28;20494;-60
2023/01/10 08:47:13;;;;;;;1.20;1.10;;;;;;;11.15;52.97;94104.25;4991423;28;20614;-60
2023/01/10 08:49:59;;;;;;;0.20;0.20;;;;;;;11.25;53.16;94098.13;4990549;28;21042;-60
2023/01/10 08:52:26;;;;;;;10.23;2.25;;;;;;;11.38;52.81;94096.69;4991140;28;20207;-59
2023/01/10 08:54:52;;;;;;;3.20;2.60;;;;;;;11.31;53.30;94109.34;4990783;28;20194;-59
2023/01/10 08:57:19;;;;;;;3.13;1.80;;;;;;;11.54;52.84;94101.50;4990929;28;21016;-60
2023/01/10 08:59:46;;;;;;;0.70;0.63;;;;;;;11.51;52.66;94101.25;4990677;28;20438;-60
2023/01/10 09:02:13;;;;;;;1.53;1.43;;;;;;;11.55;52.67;94089.16;4991470;28;20504;-60
2023/01/10 09:04:40;;;;;;;1.40;0.47;;;;;;;11.87;52.57;94090.09;4990435;28;20813;-61
2023/01/10 09:07:07;;;;;;;0.60;0.60;;;;;;;11.44;52.71;94092.97;4990896;28;20222;-60
2023/01/10 09:09:35;;;;;;;0.68;0.68;;;;;;;10.95;54.04;94082.69;4990644;28;20625;-60
2023/01/10 09:12:53;;;;;;;0.73;0.73;;;;;;;11.41;53.02;94069.88;4990890;28;20272;-59
2023/01/10 09:14:49;;;;;;;1.60;1.20;;;;;;;11.63;53.04;94084.06;4989926;28;20221;-60
2023/01/10 09:17:16;;;;;;;0.43;0.40;;;;;;;11.75;51.77;94087.09;4990746;28;20647;-60
2023/01/10 09:19:43;;;;;;;1.50;1.40;;;;;;;11.52;52.40;94092.31;4989275;28;20619;-61
2023/01/10 09:22:10;;;;;;;6.78;1.85;;;;;;;10.97;54.32;94093.69;4990726;28;20276;-60
2023/01/10 09:24:38;;;;;;;0.70;0.70;;;;;;;11.27;53.73;94088.16;4989953;28;20289;-61
2023/01/10 09:27:04;;;;;;;1.63;1.30;;;;;;;11.24;53.92;94079.00;4978121;28;20461;-60
2023/01/10 09:29:31;;;;;;;0.63;0.30;;;;;;;11.08;54.33;94079.41;4990361;28;20536;-61
2023/01/10 09:31:58;;;;;;;1.15;1.00;;;;;;;11.14;54.53;94073.88;4990720;28;20226;-61
2023/01/10 09:34:25;;;;;;;0.75;0.75;;;;;;;10.73;55.59;94075.28;4989973;28;20234;-60
2023/01/10 09:36:53;;;;;;;4.18;1.27;;;;;;;11.29;54.21;94077.38;4990388;28;20203;-59
2023/01/10 09:39:20;;;;;;;0.40;0.40;;;;;;;11.58;53.34;94065.75;4989767;28;20198;-62
2023/01/10 09:41:56;;;;;;;1.37;1.27;;;;;;;11.71;52.60;94066.94;4977795;28;20438;-59
2023/01/10 09:44:23;;;;;;;2.07;1.90;;;;;;;11.17;53.91;94060.19;4989750;28;21060;-61
2023/01/10 09:46:56;;;;;;;0.93;0.93;;;;;;;11.60;52.99;94041.88;4989881;28;20536;-61
2023/01/10 09:49:41;;;;;;;0.77;0.77;;;;;;;11.56;53.34;94035.63;4989533;28;20453;-59
2023/01/10 09:52:21;;;;;;;0.40;0.40;;;;;;;11.89;52.84;94039.94;4990243;28;20948;-58
2023/01/10 09:54:51;;;;;;;2.13;1.35;;;;;;;11.62;53.17;94037.91;4989257;28;20456;-61
2023/01/10 09:57:20;;;;;;;0.20;0.20;;;;;;;11.80;52.91;94039.00;4990137;28;20276;-60
2023/01/10 09:59:50;;;;;;;1.20;1.13;;;;;;;11.61;53.74;94043.41;4989720;28;20453;-59
2023/01/10 10:02:31;;;;;;;2.63;2.40;;;;;;;11.81;52.50;94022.19;4989803;28;20606;-60
2023/01/10 10:05:25;;;;;;;1.48;1.38;;;;;;;11.09;54.98;94026.72;4989403;28;20215;-60
2023/01/10 10:07:57;;;;;;;1.90;1.65;;;;;;;11.19;55.01;94023.19;4978262;28;20215;-60
2023/01/10 10:10:33;;;;;;;1.17;1.10;;;;;;;11.56;54.17;94019.88;4989333;28;20257;-60
2023/01/10 10:13:28;;;;;;;1.25;1.17;;;;;;;11.88;52.71;94002.41;4990135;28;20560;-60
2023/01/10 10:15:58;;;;;;;1.53;1.37;;;;;;;11.63;53.48;94023.72;4977502;28;20201;-59
2023/01/10 10:18:57;;;;;;;0.87;0.87;;;;;;;12.09;52.21;94027.31;4989698;28;20445;-60
2023/01/10 10:21:46;;;;;;;1.20;1.10;;;;;;;11.87;52.46;94026.31;4988993;28;20960;-60
2023/01/10 10:24:25;;;;;;;1.80;1.70;;;;;;;11.55;53.10;94023.56;4989374;28;20302;-60
2023/01/10 10:27:07;;;;;;;1.50;1.40;;;;;;;11.32;54.10;94019.13;4989387;28;20205;-60
2023/01/10 10:29:49;;;;;;;0.90;0.73;;;;;;;10.35;55.72;94018.53;4988994;28;20277;-60
2023/01/10 10:32:27;;;;;;;1.88;1.77;;;;;;;10.65;55.22;94018.28;4989627;28;20660;-60
2023/01/10 10:35:02;;;;;;;1.08;0.98;;;;;;;10.84;55.04;94008.63;4988609;28;20280;-60
2023/01/10 10:37:34;;;;;;;1.75;1.65;;;;;;;10.75;55.07;94005.06;4989380;28;20260;-60
2023/01/10 10:40:04;;;;;;;7.72;2.60;;;;;;;10.77;55.13;94002.94;4988703;28;20198;-59
2023/01/10 10:42:37;;;;;;;2.58;2.35;;;;;;;11.02;54.85;93999.28;4989901;28;20245;-61
2023/01/10 10:45:16;;;;;;;0.85;0.85;;;;;;;11.29;54.29;93993.47;4977761;28;20226;-59
2023/01/10 10:47:49;;;;;;;2.25;1.90;;;;;;;11.33;54.22;93995.22;4989596;28;20321;-59
2023/01/10 10:50:34;;;;;;;3.70;3.40;;;;;;;11.34;54.03;93996.00;4988919;28;20684;-60
2023/01/10 10:53:03;;;;;;;2.40;1.48;;;;;;;11.49;53.88;93977.47;4977092;28;20280;-60
2023/01/10 10:55:37;;;;;;;3.05;2.50;;;;;;;11.03;54.23;93951.81;4988397;28;20205;-59
2023/01/10 10:58:06;;;;;;;0.88;0.88;;;;;;;11.51;53.99;93983.22;4988450;28;20245;-60
2023/01/10 11:00:33;;;;;;;2.00;1.90;;;;;;;11.49;53.44;93991.38;4988727;28;20280;-60
2023/01/10 11:03:12;;;;;;;2.30;2.10;;;;;;;11.33;53.97;93994.47;4989527;28;20413;-59
2023/01/10 11:05:45;;;;;;;4.88;3.67;;;;;;;11.37;54.18;93996.22;4988797;28;20616;-60
2023/01/10 11:08:16;;;;;;;0.98;0.98;;;;;;;10.99;55.07;93984.91;4989000;28;20206;-59
2023/01/10 11:10:51;;;;;;;2.75;1.30;;;;;;;11.46;54.25;93975.41;4988511;28;20199;-60
2023/01/10 11:13:36;;;;;;;0.38;0.38;;;;;;;11.59;54.01;93966.81;4989164;28;20202;-59
2023/01/10 11:16:06;;;;;;;2.20;1.33;;;;;;;11.20;54.55;93967.84;4988999;28;20619;-60
2023/01/10 11:18:33;;;;;;;5.93;2.65;;;;;;;11.17;54.62;93959.78;4989121;28;20194;-60
2023/01/10 11:21:14;;;;;;;12.20;2.95;;;;;;;11.34;54.50;93965.34;4988726;28;20206;-60
2023/01/10 11:24:34;;;;;;;1.35;1.05;;;;;;;11.07;55.53;93965.94;4989247;28;20278;-60
2023/01/10 11:27:12;;;;;;;2.85;2.58;;;;;;;11.00;55.39;93968.09;4988703;28;20199;-59
2023/01/10 11:29:46;;;;;;;0.80;0.80;;;;;;;11.64;54.11;93964.16;4988320;28;20297;-59
2023/01/10 11:32:16;;;;;;;1.55;1.45;;;;;;;10.67;56.12;93961.16;4989471;28;20210;-61
2023/01/10 11:34:52;;;;;;;4.13;2.63;;;;;;;11.35;55.24;93958.25;4988350;28;20298;-59
2023/01/10 11:37:31;;;;;;;7.07;1.58;;;;;;;11.59;54.44;93962.38;4991141;28;20237;-60
2023/01/10 11:40:13;;;;;;;3.00;1.88;;;;;;;11.52;55.06;93961.16;4992029;28;20666;-59
2023/01/10 11:42:40;;;;;;;0.73;0.73;;;;;;;11.77;54.42;93969.47;4992600;28;20214;-61
2023/01/10 11:45:16;;;;;;;1.27;1.23;;;;;;;11.09;56.12;93968.28;4991787;28;20182;-60
2023/01/10 11:47:53;;;;;;;1.42;1.40;;;;;;;11.35;55.64;93960.88;4992616;28;20459;-60
2023/01/10 11:50:33;;;;;;;1.40;1.30;;;;;;;11.58;55.13;93957.41;4991654;28;20203;-60
2023/01/10 11:53:01;;;;;;;0.93;0.93;;;;;;;11.42;55.26;93953.44;4992615;28;20204;-60
2023/01/10 11:55:30;;;;;;;2.40;2.23;;;;;;;11.33;55.79;93949.88;4991511;28;20194;-60
2023/01/10 11:58:13;;;;;;;1.85;1.33;;;;;;;11.67;54.50;93961.78;4992379;28;20441;-58
2023/01/10 12:00:49;;;;;;;0.20;0.20;;;;;;;11.31;56.26;93959.88;4991793;28;20725;-60
2023/01/10 12:03:28;;;;;;;2.80;2.50;;;;;;;11.45;55.03;93947.63;4992788;28;20869;-59